Terminal Aerodrome Forecast
Issued by NWS

Home | Current Version | Previous Version | Text Only | Print | Product List | Glossary On
Versions: 1 2 3 4 5 6 7 8 9 10 11 12 13 14 15 16 17 18 19 20 21 22 23 24 25 26 27 28 29 30
000
FTUS42 KCAE 160500
TAFOGB
TAF
KOGB 160520Z 1606/1706 35010G16KT P6SM FEW250
     FM160900 01008KT P6SM SKC
     FM161300 04011G17KT P6SM SKC
     FM161700 06010KT P6SM SKC=

USA.gov is the U.S. government's official web portal to all federal, state and local government web resources and services.